createdAt,value
2024-02-28T00:00:10.858Z,13.64
2024-02-28T00:01:10.955Z,12.80
2024-02-28T00:02:10.826Z,13.27
2024-02-28T00:03:10.870Z,12.70
2024-02-28T00:04:10.832Z,12.07
2024-02-28T00:05:10.833Z,13.59
2024-02-28T00:06:10.866Z,13.22
2024-02-28T00:07:10.867Z,13.72
2024-02-28T00:08:10.818Z,13.44
2024-02-28T00:09:10.920Z,14.71
2024-02-28T00:10:10.846Z,15.22
2024-02-28T00:11:10.890Z,14.47
2024-02-28T00:12:10.865Z,15.30
2024-02-28T00:13:10.879Z,16.27
2024-02-28T00:14:10.848Z,16.85
2024-02-28T00:15:10.899Z,17.44
2024-02-28T00:16:10.889Z,17.46
2024-02-28T00:17:10.848Z,17.29
2024-02-28T00:18:10.957Z,16.50
2024-02-28T00:19:10.953Z,17.84
2024-02-28T00:20:11.063Z,16.59
2024-02-28T00:21:11.058Z,17.04
2024-02-28T00:22:11.046Z,16.27
2024-02-28T00:23:11.107Z,17.40
2024-02-28T00:24:11.263Z,19.06
2024-02-28T00:25:11.186Z,19.12
2024-02-28T00:26:11.279Z,18.09
2024-02-28T00:27:11.373Z,20.56
2024-02-28T00:28:11.367Z,18.96
2024-02-28T00:29:11.393Z,19.03
2024-02-28T00:30:11.496Z,18.34
2024-02-28T00:31:11.506Z,17.92
2024-02-28T00:32:11.541Z,17.11
2024-02-28T00:33:11.662Z,17.61
2024-02-28T00:34:11.652Z,18.23
2024-02-28T00:35:11.666Z,17.84
2024-02-28T00:36:11.805Z,16.58
2024-02-28T00:37:11.813Z,17.45
2024-02-28T00:38:11.778Z,17.48
2024-02-28T00:39:11.842Z,17.25
2024-02-28T00:40:11.833Z,18.67
2024-02-28T00:41:11.856Z,17.54
2024-02-28T00:42:11.904Z,17.69
2024-02-28T00:43:11.903Z,18.24
2024-02-28T00:44:11.930Z,20.07
2024-02-28T00:45:12.048Z,18.90
2024-02-28T00:46:11.985Z,19.66
2024-02-28T00:47:12.026Z,18.53
2024-02-28T00:48:12.141Z,19.51
2024-02-28T00:49:12.124Z,19.18
2024-02-28T00:50:12.146Z,20.47
2024-02-28T00:51:12.186Z,18.63
2024-02-28T00:52:12.176Z,18.71
2024-02-28T00:53:12.202Z,19.50
2024-02-28T00:54:12.274Z,17.96
2024-02-28T00:55:12.301Z,18.72
2024-02-28T00:56:12.351Z,18.11
2024-02-28T00:57:12.398Z,18.79
2024-02-28T00:58:12.405Z,18.05
2024-02-28T00:59:12.438Z,16.84
2024-02-28T01:00:12.534Z,18.99
2024-02-28T01:01:12.621Z,17.91
2024-02-28T01:02:12.618Z,18.48
2024-02-28T01:03:12.693Z,19.16
2024-02-28T01:04:12.707Z,18.50
2024-02-28T01:05:12.767Z,19.40
2024-02-28T01:06:12.842Z,19.86
2024-02-28T01:07:12.854Z,19.16
2024-02-28T01:08:12.886Z,19.47
2024-02-28T01:09:12.964Z,21.36
2024-02-28T01:10:12.979Z,22.85
2024-02-28T01:11:13.059Z,22.26
2024-02-28T01:12:13.109Z,22.26
2024-02-28T01:13:13.113Z,21.15
2024-02-28T01:14:13.192Z,20.79
2024-02-28T01:15:13.244Z,22.48
2024-02-28T01:16:13.245Z,21.77
2024-02-28T01:17:13.266Z,23.02
2024-02-28T01:18:13.750Z,22.38
2024-02-28T01:19:13.326Z,22.31
2024-02-28T01:20:13.427Z,21.81
2024-02-28T01:21:13.496Z,21.72
2024-02-28T01:22:13.506Z,23.19
2024-02-28T01:23:13.568Z,22.12
2024-02-28T01:24:13.696Z,21.76
2024-02-28T01:25:13.642Z,21.16
2024-02-28T01:26:13.703Z,23.19
2024-02-28T01:27:13.808Z,23.69
2024-02-28T01:28:13.756Z,23.21
2024-02-28T01:29:13.758Z,21.85
2024-02-28T01:30:13.930Z,21.08
2024-02-28T01:31:13.849Z,21.96
2024-02-28T01:32:13.892Z,20.06
2024-02-28T01:33:13.989Z,20.98
2024-02-28T01:34:13.983Z,22.21
2024-02-28T01:35:14.027Z,23.22
2024-02-28T01:36:14.082Z,22.42
2024-02-28T01:37:14.104Z,22.65
2024-02-28T01:38:14.171Z,21.79
2024-02-28T01:39:14.244Z,22.14
2024-02-28T01:40:14.309Z,21.25
2024-02-28T01:41:14.268Z,22.24
2024-02-28T01:42:14.309Z,22.65
2024-02-28T01:43:14.322Z,22.07
2024-02-28T01:44:14.324Z,21.58
2024-02-28T01:45:14.375Z,21.99
2024-02-28T01:46:14.426Z,21.19
2024-02-28T01:47:14.455Z,21.41
2024-02-28T01:48:14.608Z,22.07
2024-02-28T01:49:14.559Z,20.10
2024-02-28T01:50:14.650Z,21.13
2024-02-28T01:51:14.695Z,19.81
2024-02-28T01:52:14.703Z,21.43
2024-02-28T01:53:14.727Z,22.62
2024-02-28T01:54:14.731Z,20.38
2024-02-28T01:55:14.756Z,22.27
2024-02-28T01:56:14.844Z,22.19
2024-02-28T01:57:14.885Z,20.84
2024-02-28T01:58:14.865Z,22.14
2024-02-28T01:59:14.862Z,20.09
2024-02-28T02:00:14.890Z,20.52
2024-02-28T02:01:15.020Z,19.40
2024-02-28T02:02:14.895Z,19.97
2024-02-28T02:03:14.946Z,21.45
2024-02-28T02:04:14.941Z,19.79
2024-02-28T02:05:14.961Z,18.58
2024-02-28T02:06:15.028Z,20.28
2024-02-28T02:07:15.048Z,19.33
2024-02-28T02:08:15.104Z,21.29
2024-02-28T02:09:15.215Z,20.25
2024-02-28T02:10:15.195Z,19.50
2024-02-28T02:11:15.252Z,20.06
2024-02-28T02:12:15.242Z,21.09
2024-02-28T02:13:15.270Z,19.61
2024-02-28T02:14:15.281Z,19.70
2024-02-28T02:15:15.402Z,21.90
2024-02-28T02:16:15.473Z,21.30
2024-02-28T02:17:15.444Z,21.61
2024-02-28T02:18:15.643Z,18.80
2024-02-28T02:19:15.657Z,23.37
2024-02-28T02:20:15.628Z,22.39
2024-02-28T02:21:15.733Z,21.84
2024-02-28T02:22:15.806Z,21.73
2024-02-28T02:23:15.774Z,21.75
2024-02-28T02:24:15.861Z,23.52
2024-02-28T02:25:15.848Z,23.12
2024-02-28T02:26:15.921Z,24.17
2024-02-28T02:27:15.958Z,22.81
2024-02-28T02:28:15.967Z,20.42
2024-02-28T02:29:16.004Z,24.36
2024-02-28T02:30:16.085Z,23.25
2024-02-28T02:31:16.067Z,23.34
2024-02-28T02:32:16.082Z,22.94
2024-02-28T02:33:16.161Z,23.40
2024-02-28T02:34:16.143Z,22.39
2024-02-28T02:35:16.164Z,20.15
2024-02-28T02:36:16.178Z,20.44
2024-02-28T02:37:16.181Z,20.91
2024-02-28T02:38:16.203Z,20.69
2024-02-28T02:39:16.316Z,20.41
2024-02-28T02:40:16.301Z,21.37
2024-02-28T02:41:16.352Z,19.21
2024-02-28T02:42:16.529Z,19.67
2024-02-28T02:43:16.461Z,19.64
2024-02-28T02:44:16.506Z,21.59
2024-02-28T02:45:16.642Z,21.73
2024-02-28T02:46:16.654Z,23.39
2024-02-28T02:47:16.678Z,22.50
2024-02-28T02:48:16.747Z,21.34
2024-02-28T02:49:16.753Z,21.11
2024-02-28T02:50:16.796Z,20.16
2024-02-28T02:51:16.855Z,20.53
2024-02-28T02:52:16.831Z,20.51
2024-02-28T02:53:16.888Z,20.53
2024-02-28T02:54:16.927Z,20.35
2024-02-28T02:55:16.946Z,21.50
2024-02-28T02:56:16.996Z,21.68
2024-02-28T02:57:17.053Z,20.60
2024-02-28T02:58:17.059Z,20.42
2024-02-28T02:59:17.122Z,19.70
2024-02-28T03:00:17.214Z,18.83
2024-02-28T03:01:17.304Z,20.39
2024-02-28T03:02:17.276Z,20.22
2024-02-28T03:03:17.349Z,21.28
2024-02-28T03:04:17.385Z,21.02
2024-02-28T03:05:17.391Z,20.22
2024-02-28T03:06:17.459Z,20.53
2024-02-28T03:07:17.434Z,21.87
2024-02-28T03:08:17.450Z,20.33
2024-02-28T03:09:17.477Z,21.77
2024-02-28T03:10:17.497Z,23.17
2024-02-28T03:11:17.602Z,20.47
2024-02-28T03:12:17.616Z,20.54
2024-02-28T03:13:17.635Z,21.07
2024-02-28T03:14:17.630Z,20.71
2024-02-28T03:15:17.717Z,20.98
2024-02-28T03:16:17.664Z,21.84
2024-02-28T03:17:17.692Z,21.54
2024-02-28T03:18:17.740Z,21.61
2024-02-28T03:19:17.763Z,21.27
2024-02-28T03:20:17.794Z,20.64
2024-02-28T03:21:17.867Z,20.43
2024-02-28T03:22:17.913Z,22.88
2024-02-28T03:23:17.966Z,20.89
2024-02-28T03:24:18.023Z,21.97
2024-02-28T03:25:18.048Z,20.76
2024-02-28T03:26:18.095Z,21.40
2024-02-28T03:27:18.140Z,21.14
2024-02-28T03:28:18.163Z,20.91
2024-02-28T03:29:18.199Z,20.60
2024-02-28T03:30:18.275Z,22.20
2024-02-28T03:31:18.281Z,22.49
2024-02-28T03:32:18.315Z,22.62
2024-02-28T03:33:18.337Z,22.41
2024-02-28T03:34:18.362Z,21.77
2024-02-28T03:35:18.388Z,22.99
2024-02-28T03:36:18.480Z,24.32
2024-02-28T03:37:18.468Z,22.73
2024-02-28T03:38:18.525Z,22.15
2024-02-28T03:39:18.606Z,21.00
2024-02-28T03:40:18.616Z,22.61
2024-02-28T03:41:18.680Z,21.69
2024-02-28T03:42:18.716Z,21.13
2024-02-28T03:43:18.705Z,22.64
2024-02-28T03:44:18.712Z,23.37
2024-02-28T03:45:18.816Z,22.49
2024-02-28T03:46:18.802Z,23.44
2024-02-28T03:47:18.894Z,22.12
2024-02-28T03:48:19.011Z,22.54
2024-02-28T03:49:18.938Z,22.20
2024-02-28T03:50:18.962Z,22.45
2024-02-28T03:51:19.016Z,22.01
2024-02-28T03:52:19.011Z,22.68
2024-02-28T03:53:19.079Z,22.05
2024-02-28T03:54:19.147Z,22.83
2024-02-28T03:55:19.191Z,23.67
2024-02-28T03:56:20.284Z,24.46
2024-02-28T03:57:19.295Z,22.61
2024-02-28T03:58:19.393Z,22.97
2024-02-28T03:59:19.379Z,21.26
2024-02-28T04:00:19.446Z,22.61
2024-02-28T04:01:19.544Z,21.16
2024-02-28T04:02:19.560Z,21.67
2024-02-28T04:03:19.656Z,21.12
2024-02-28T04:04:19.648Z,21.86
2024-02-28T04:05:19.702Z,22.13
2024-02-28T04:06:19.742Z,21.73
2024-02-28T04:07:19.737Z,20.59
2024-02-28T04:08:19.754Z,21.51
2024-02-28T04:09:19.806Z,21.41
2024-02-28T04:10:19.838Z,22.61
2024-02-28T04:11:19.893Z,21.61
2024-02-28T04:12:19.925Z,21.34
2024-02-28T04:13:19.929Z,21.50
2024-02-28T04:14:20.002Z,21.32
2024-02-28T04:15:20.141Z,24.62
2024-02-28T04:16:20.141Z,20.68
2024-02-28T04:17:20.202Z,22.05
2024-02-28T04:18:20.302Z,23.44
2024-02-28T04:19:20.317Z,23.85
2024-02-28T04:20:20.375Z,21.18
2024-02-28T04:21:20.479Z,25.23
2024-02-28T04:22:20.460Z,24.88
2024-02-28T04:23:20.502Z,23.43
2024-02-28T04:24:20.562Z,22.73
2024-02-28T04:25:20.563Z,22.30
2024-02-28T04:26:20.628Z,23.76
2024-02-28T04:27:20.737Z,23.18
2024-02-28T04:28:20.770Z,21.38
2024-02-28T04:29:20.800Z,23.06
2024-02-28T04:30:20.841Z,22.14
2024-02-28T04:31:20.847Z,22.60
2024-02-28T04:32:20.915Z,22.96
2024-02-28T04:33:20.961Z,22.46
2024-02-28T04:34:20.933Z,21.87
2024-02-28T04:35:20.989Z,22.56
2024-02-28T04:36:21.116Z,22.38
2024-02-28T04:37:21.581Z,23.03
2024-02-28T04:38:21.048Z,23.63
2024-02-28T04:39:21.154Z,25.73
2024-02-28T04:40:21.106Z,22.65
2024-02-28T04:41:21.614Z,21.17
2024-02-28T04:42:21.254Z,20.56
2024-02-28T04:43:21.260Z,21.76
2024-02-28T04:44:21.288Z,21.24
2024-02-28T04:45:21.453Z,20.22
2024-02-28T04:46:21.380Z,20.67
2024-02-28T04:47:26.467Z,21.45
2024-02-28T04:48:34.192Z,20.39
2024-02-28T04:49:34.108Z,20.42
2024-02-28T04:50:34.148Z,22.60
2024-02-28T04:51:34.163Z,21.24
2024-02-28T04:52:34.171Z,20.02
2024-02-28T04:53:34.161Z,21.01
2024-02-28T04:54:34.182Z,28.78
2024-02-28T04:55:34.161Z,26.39
2024-02-28T04:56:34.176Z,24.32
2024-02-28T04:57:34.209Z,22.37
2024-02-28T04:58:34.164Z,21.18
2024-02-28T04:59:34.227Z,21.61
2024-02-28T05:00:34.299Z,20.02
2024-02-28T05:01:34.328Z,18.62
2024-02-28T05:02:34.169Z,19.59
2024-02-28T05:03:34.197Z,19.21
2024-02-28T05:04:34.174Z,21.25
2024-02-28T05:05:34.180Z,20.64
2024-02-28T05:06:35.943Z,20.80
2024-02-28T05:07:34.181Z,19.98
2024-02-28T05:08:34.175Z,20.11
2024-02-28T05:09:34.296Z,20.56
2024-02-28T05:10:34.189Z,21.04
2024-02-28T05:11:34.285Z,20.58
2024-02-28T05:12:34.297Z,21.07
2024-02-28T05:13:34.183Z,20.35
2024-02-28T05:14:34.190Z,21.36
2024-02-28T05:15:34.234Z,19.06
2024-02-28T05:16:34.205Z,19.76
2024-02-28T05:17:34.221Z,18.82
2024-02-28T05:18:34.225Z,20.28
2024-02-28T05:19:34.207Z,20.44
2024-02-28T05:20:34.200Z,20.23
2024-02-28T05:21:34.303Z,18.35
2024-02-28T05:22:34.217Z,18.24
2024-02-28T05:23:34.226Z,20.28
2024-02-28T05:24:34.257Z,19.50
2024-02-28T05:25:34.211Z,19.53
2024-02-28T05:26:34.225Z,19.86
2024-02-28T05:27:34.231Z,19.11
2024-02-28T05:28:34.219Z,18.50
2024-02-28T05:29:34.244Z,20.46
2024-02-28T05:30:34.282Z,18.90
2024-02-28T05:31:34.259Z,20.38
2024-02-28T05:32:34.280Z,20.46
2024-02-28T05:33:34.302Z,26.79
2024-02-28T05:34:34.255Z,33.29
2024-02-28T05:35:34.260Z,26.07
2024-02-28T05:36:34.337Z,22.20
2024-02-28T05:37:34.253Z,19.81
2024-02-28T05:38:34.251Z,20.15
2024-02-28T05:39:34.309Z,20.35
2024-02-28T05:40:34.257Z,19.92
2024-02-28T05:41:34.268Z,19.33
2024-02-28T05:42:34.305Z,18.38
2024-02-28T05:43:34.270Z,19.23
2024-02-28T05:44:34.276Z,19.73
2024-02-28T05:45:34.328Z,19.00
2024-02-28T05:46:34.323Z,19.43
2024-02-28T05:47:34.304Z,18.13
2024-02-28T05:48:34.285Z,20.70
2024-02-28T05:49:34.294Z,19.20
2024-02-28T05:50:34.290Z,20.01
2024-02-28T05:51:34.317Z,18.86
2024-02-28T05:52:34.291Z,18.56
2024-02-28T05:53:34.283Z,20.75
2024-02-28T05:54:34.325Z,17.19
2024-02-28T05:55:34.296Z,18.29
2024-02-28T05:56:34.343Z,18.70
2024-02-28T05:57:34.339Z,18.92
2024-02-28T05:58:34.318Z,17.95
2024-02-28T05:59:34.293Z,18.68
2024-02-28T06:00:34.374Z,18.30
2024-02-28T06:01:34.375Z,18.64
2024-02-28T06:02:34.296Z,18.59
2024-02-28T06:03:34.331Z,19.73
2024-02-28T06:04:34.306Z,21.83
2024-02-28T06:05:34.313Z,20.23
2024-02-28T06:06:34.357Z,19.61
2024-02-28T06:07:34.330Z,20.00
2024-02-28T06:08:34.311Z,19.21
2024-02-28T06:09:34.417Z,19.24
2024-02-28T06:10:34.331Z,19.00
2024-02-28T06:11:34.418Z,19.29
2024-02-28T06:12:34.470Z,20.25
2024-02-28T06:13:34.438Z,19.37
2024-02-28T06:14:34.552Z,20.75
2024-02-28T06:15:34.561Z,19.93
2024-02-28T06:16:34.532Z,19.89
2024-02-28T06:17:34.596Z,18.69
2024-02-28T06:18:35.085Z,18.97
2024-02-28T06:19:34.618Z,19.46
2024-02-28T06:20:34.677Z,19.95
2024-02-28T06:21:34.844Z,18.25
2024-02-28T06:22:34.671Z,18.41
2024-02-28T06:23:34.706Z,19.81
2024-02-28T06:24:34.789Z,18.87
2024-02-28T06:25:34.809Z,19.37
2024-02-28T06:26:34.850Z,19.93
2024-02-28T06:27:34.932Z,20.79
2024-02-28T06:28:34.873Z,45.57
2024-02-28T06:29:34.919Z,62.70
2024-02-28T06:30:35.038Z,62.65
2024-02-28T06:31:35.031Z,46.68
2024-02-28T06:32:35.130Z,52.04
2024-02-28T06:33:35.116Z,48.08
2024-02-28T06:34:35.151Z,38.05
2024-02-28T06:35:35.241Z,48.72
2024-02-28T06:36:35.319Z,103.74
2024-02-28T06:37:35.345Z,55.88
2024-02-28T06:38:35.419Z,64.03
2024-02-28T06:39:35.477Z,77.50
2024-02-28T06:40:35.552Z,60.32
2024-02-28T06:41:35.628Z,41.52
2024-02-28T06:42:35.707Z,34.00
2024-02-28T06:43:35.704Z,30.73
2024-02-28T06:44:35.807Z,28.72
2024-02-28T06:45:35.831Z,27.93
2024-02-28T06:46:35.892Z,27.26
2024-02-28T06:47:35.896Z,25.45
2024-02-28T06:48:35.996Z,24.96
2024-02-28T06:49:36.012Z,23.27
2024-02-28T06:50:36.066Z,28.09
2024-02-28T06:51:36.316Z,29.52
2024-02-28T06:52:36.105Z,26.30
2024-02-28T06:53:36.265Z,24.37
2024-02-28T06:54:36.316Z,25.11
2024-02-28T06:55:36.308Z,25.59
2024-02-28T06:56:36.329Z,24.19
2024-02-28T06:57:36.475Z,23.56
2024-02-28T06:58:36.482Z,24.64
2024-02-28T06:59:36.503Z,24.20
2024-02-28T07:00:36.646Z,24.21
2024-02-28T07:01:36.844Z,24.15
2024-02-28T07:02:36.675Z,25.88
2024-02-28T07:03:36.790Z,24.35
2024-02-28T07:04:36.860Z,23.33
2024-02-28T07:05:36.776Z,24.49
2024-02-28T07:06:36.972Z,25.02
2024-02-28T07:07:36.887Z,27.36
2024-02-28T07:08:36.907Z,24.76
2024-02-28T07:09:36.948Z,23.78
2024-02-28T07:10:37.082Z,25.15
2024-02-28T07:11:36.987Z,23.50
2024-02-28T07:12:37.145Z,25.65
2024-02-28T07:13:37.060Z,24.18
2024-02-28T07:14:37.123Z,24.96
2024-02-28T07:15:37.245Z,24.44
2024-02-28T07:16:37.244Z,25.02
2024-02-28T07:17:37.320Z,24.68
2024-02-28T07:18:37.377Z,23.87
2024-02-28T07:19:37.410Z,25.77
2024-02-28T07:20:37.489Z,25.27
2024-02-28T07:21:37.514Z,24.54
2024-02-28T07:22:37.525Z,23.16
2024-02-28T07:23:37.515Z,25.08
2024-02-28T07:24:37.582Z,26.04
2024-02-28T07:25:37.573Z,23.36
2024-02-28T07:26:37.589Z,23.97
2024-02-28T07:27:37.664Z,23.60
2024-02-28T07:28:37.653Z,25.35
2024-02-28T07:29:37.650Z,24.31
2024-02-28T07:30:37.765Z,23.61
2024-02-28T07:31:37.760Z,25.18
2024-02-28T07:32:37.873Z,24.26
2024-02-28T07:33:37.836Z,25.18
2024-02-28T07:34:37.810Z,23.25
2024-02-28T07:35:37.853Z,22.80
2024-02-28T07:36:37.981Z,26.31
2024-02-28T07:37:37.984Z,24.25
2024-02-28T07:38:37.996Z,25.72
2024-02-28T07:39:38.127Z,24.39
2024-02-28T07:40:38.049Z,23.75
2024-02-28T07:41:38.096Z,25.50
2024-02-28T07:42:38.170Z,24.85
2024-02-28T07:43:38.247Z,25.01
2024-02-28T07:44:38.168Z,24.06
2024-02-28T07:45:38.455Z,24.85
2024-02-28T07:46:38.246Z,24.78
2024-02-28T07:47:38.286Z,23.52
2024-02-28T07:48:38.287Z,23.46
2024-02-28T07:49:38.287Z,61.87
2024-02-28T07:50:38.300Z,119.14
2024-02-28T07:51:38.831Z,236.63
2024-02-28T07:52:38.536Z,75.41
2024-02-28T07:53:38.421Z,48.99
2024-02-28T07:54:38.529Z,34.85
2024-02-28T07:55:38.574Z,64.13
2024-02-28T07:56:38.533Z,42.77
2024-02-28T07:57:38.696Z,33.11
2024-02-28T07:58:38.636Z,28.61
2024-02-28T07:59:38.672Z,27.30
2024-02-28T08:00:38.846Z,27.12
2024-02-28T08:01:38.903Z,27.07
2024-02-28T08:02:38.897Z,32.51
2024-02-28T08:03:38.943Z,32.52
2024-02-28T08:04:38.987Z,33.82
2024-02-28T08:05:38.921Z,45.73
2024-02-28T08:06:38.967Z,29.17
2024-02-28T08:07:38.928Z,25.80
2024-02-28T08:08:38.935Z,28.80
2024-02-28T08:09:38.969Z,30.70
2024-02-28T08:10:38.939Z,32.60
2024-02-28T08:11:38.941Z,41.24
2024-02-28T08:12:39.017Z,39.04
2024-02-28T08:13:38.990Z,38.08
2024-02-28T08:14:38.941Z,34.80
2024-02-28T08:15:38.986Z,30.08
2024-02-28T08:16:38.959Z,28.38
2024-02-28T08:17:39.001Z,28.08
2024-02-28T08:18:39.010Z,30.03
2024-02-28T08:19:39.006Z,28.68
2024-02-28T08:20:38.987Z,29.50
2024-02-28T08:21:39.068Z,28.25
2024-02-28T08:22:38.994Z,28.86
2024-02-28T08:23:39.024Z,28.42
2024-02-28T08:24:39.072Z,28.63
2024-02-28T08:25:39.013Z,30.65
2024-02-28T08:26:39.086Z,30.76
2024-02-28T08:27:39.021Z,30.04
2024-02-28T08:28:39.034Z,30.80
2024-02-28T08:29:39.006Z,27.55
2024-02-28T08:30:39.056Z,26.97
2024-02-28T08:31:39.034Z,28.85
2024-02-28T08:32:39.041Z,29.73
2024-02-28T08:33:39.122Z,28.60
2024-02-28T08:34:39.061Z,29.13
2024-02-28T08:35:39.696Z,28.71
2024-02-28T08:36:39.091Z,26.12
2024-02-28T08:37:39.044Z,26.21
2024-02-28T08:38:39.071Z,26.57
2024-02-28T08:39:39.138Z,27.13
2024-02-28T08:40:39.182Z,27.35
2024-02-28T08:41:39.200Z,26.44
2024-02-28T08:42:39.279Z,26.95
2024-02-28T08:43:39.180Z,27.74
2024-02-28T08:44:39.212Z,27.23
2024-02-28T08:45:39.298Z,25.76
2024-02-28T08:46:39.224Z,25.15
2024-02-28T08:47:39.274Z,26.71
2024-02-28T08:48:39.261Z,31.66
2024-02-28T08:49:39.826Z,65.74
2024-02-28T08:50:39.169Z,52.28
2024-02-28T08:51:39.297Z,43.92
2024-02-28T08:52:40.166Z,29.43
2024-02-28T08:53:39.168Z,26.33
2024-02-28T08:54:39.214Z,29.32
2024-02-28T08:55:39.159Z,35.87
2024-02-28T08:56:43.897Z,32.63
2024-02-28T08:57:40.214Z,42.72
2024-02-28T08:58:39.207Z,38.57
2024-02-28T08:59:39.178Z,33.90
2024-02-28T09:00:39.284Z,29.59
2024-02-28T09:01:39.274Z,29.09
2024-02-28T09:02:39.318Z,27.94
2024-02-28T09:03:39.225Z,28.06
2024-02-28T09:04:39.203Z,27.71
2024-02-28T09:05:39.183Z,27.51
2024-02-28T09:06:39.228Z,26.81
2024-02-28T09:07:39.310Z,25.06
2024-02-28T09:08:39.358Z,27.36
2024-02-28T09:09:39.592Z,27.38
2024-02-28T09:10:39.536Z,29.55
2024-02-28T09:11:39.550Z,27.21
2024-02-28T09:12:39.554Z,27.90
2024-02-28T09:13:39.653Z,25.55
2024-02-28T09:14:39.548Z,25.25
2024-02-28T09:15:39.642Z,28.07
2024-02-28T09:16:39.590Z,26.86
2024-02-28T09:17:39.733Z,26.74
2024-02-28T09:18:39.726Z,28.41
2024-02-28T09:19:39.689Z,28.66
2024-02-28T09:20:39.724Z,29.02
2024-02-28T09:21:39.825Z,27.58
2024-02-28T09:22:39.783Z,30.42
2024-02-28T09:23:39.831Z,29.62
2024-02-28T09:24:39.926Z,29.01
2024-02-28T09:25:40.807Z,33.62
2024-02-28T09:26:39.862Z,34.01
2024-02-28T09:27:39.985Z,58.93
2024-02-28T09:28:39.992Z,47.35
2024-02-28T09:29:40.140Z,36.14
2024-02-28T09:30:45.985Z,43.94
2024-02-28T09:31:41.427Z,42.23
2024-02-28T09:32:40.058Z,39.22
2024-02-28T09:33:40.131Z,35.55
2024-02-28T09:34:40.054Z,39.23
2024-02-28T09:35:40.089Z,34.87
2024-02-28T09:36:40.095Z,43.95
2024-02-28T09:37:40.094Z,65.40
2024-02-28T09:38:40.055Z,36.92
2024-02-28T09:39:40.900Z,41.76
2024-02-28T09:40:40.103Z,37.77
2024-02-28T09:41:40.098Z,41.29
2024-02-28T09:42:40.113Z,40.18
2024-02-28T09:43:40.056Z,40.11
2024-02-28T09:44:40.080Z,36.73
2024-02-28T09:45:40.125Z,32.03
2024-02-28T09:46:40.169Z,34.40
2024-02-28T09:47:40.085Z,29.92
2024-02-28T09:48:40.110Z,29.15
2024-02-28T09:49:40.111Z,30.07
2024-02-28T09:50:40.082Z,30.77
2024-02-28T09:51:40.105Z,27.52
2024-02-28T09:52:40.401Z,28.68
2024-02-28T09:53:40.136Z,29.62
2024-02-28T09:54:40.207Z,29.61
2024-02-28T09:55:40.285Z,31.74
2024-02-28T09:56:40.262Z,31.25
2024-02-28T09:57:40.255Z,29.57
2024-02-28T09:58:40.349Z,29.68
2024-02-28T09:59:48.375Z,30.80
2024-02-28T10:00:41.435Z,30.59
2024-02-28T10:01:40.340Z,29.94
2024-02-28T10:02:40.334Z,28.56
2024-02-28T10:03:40.381Z,29.01
2024-02-28T10:04:40.406Z,28.59
2024-02-28T10:05:40.310Z,29.82
2024-02-28T10:06:40.372Z,29.22
2024-02-28T10:07:40.313Z,30.22
2024-02-28T10:08:40.363Z,30.02
2024-02-28T10:09:40.354Z,29.36
2024-02-28T10:10:40.346Z,30.35
2024-02-28T10:11:40.339Z,31.29
2024-02-28T10:12:40.335Z,29.34
2024-02-28T10:13:40.325Z,29.08
2024-02-28T10:14:40.653Z,32.27
2024-02-28T10:15:40.469Z,31.43
2024-02-28T10:16:43.844Z,29.03
2024-02-28T10:17:40.416Z,29.71
2024-02-28T10:18:40.499Z,30.59
2024-02-28T10:19:40.530Z,30.61
2024-02-28T10:20:40.537Z,31.88
2024-02-28T10:21:40.631Z,30.89
2024-02-28T10:22:40.653Z,32.87
2024-02-28T10:23:40.633Z,32.74
2024-02-28T10:24:40.756Z,31.23
2024-02-28T10:25:45.470Z,30.84
2024-02-28T10:26:41.815Z,29.62
2024-02-28T10:27:40.697Z,30.08
2024-02-28T10:28:40.730Z,30.22
2024-02-28T10:29:40.698Z,30.74
2024-02-28T10:30:40.811Z,30.02
2024-02-28T10:31:40.832Z,30.21
2024-02-28T10:32:40.713Z,29.01
2024-02-28T10:33:40.745Z,32.66
2024-02-28T10:34:40.699Z,28.99
2024-02-28T10:35:40.684Z,28.21
2024-02-28T10:36:40.806Z,29.29
2024-02-28T10:37:40.722Z,26.91
2024-02-28T10:38:40.693Z,30.63
2024-02-28T10:39:40.772Z,28.47
2024-02-28T10:40:40.720Z,28.71
2024-02-28T10:41:40.808Z,29.07
2024-02-28T10:42:40.916Z,30.27
2024-02-28T10:43:40.907Z,29.02
2024-02-28T10:44:40.973Z,29.49
2024-02-28T10:45:57.546Z,28.75
2024-02-28T10:46:42.131Z,28.77
2024-02-28T10:47:41.121Z,31.58
2024-02-28T10:48:41.029Z,31.40
2024-02-28T10:49:41.018Z,28.32
2024-02-28T10:50:40.975Z,26.73
2024-02-28T10:51:41.122Z,30.05
2024-02-28T10:52:40.999Z,29.68
2024-02-28T10:53:41.002Z,28.11
2024-02-28T10:54:41.412Z,29.22
2024-02-28T10:55:40.988Z,28.54
2024-02-28T10:56:41.380Z,27.30
2024-02-28T10:57:41.136Z,25.26
2024-02-28T10:58:41.090Z,26.74
2024-02-28T10:59:41.146Z,26.95
2024-02-28T11:00:41.318Z,26.94
2024-02-28T11:01:41.259Z,27.82
2024-02-28T11:02:41.283Z,26.57
2024-02-28T11:03:41.245Z,27.37
2024-02-28T11:04:41.333Z,28.35
2024-02-28T11:05:41.353Z,25.52
2024-02-28T11:06:41.435Z,26.68
2024-02-28T11:07:41.491Z,26.01
2024-02-28T11:08:41.480Z,24.48
2024-02-28T11:09:41.562Z,25.72
2024-02-28T11:10:41.593Z,28.11
2024-02-28T11:11:41.864Z,25.51
2024-02-28T11:12:41.584Z,29.12
2024-02-28T11:13:41.654Z,26.07
2024-02-28T11:14:41.623Z,28.42
2024-02-28T11:15:41.891Z,28.24
2024-02-28T11:16:41.883Z,27.80
2024-02-28T11:17:41.949Z,26.57
2024-02-28T11:18:41.853Z,26.40
2024-02-28T11:19:41.823Z,27.86
2024-02-28T11:20:42.362Z,27.02
2024-02-28T11:21:41.914Z,26.86
2024-02-28T11:22:42.063Z,26.39
2024-02-28T11:23:41.989Z,26.91
2024-02-28T11:24:42.062Z,28.21
2024-02-28T11:25:42.104Z,27.77
2024-02-28T11:26:42.341Z,27.60
2024-02-28T11:27:42.097Z,27.84
2024-02-28T11:28:42.260Z,26.10
2024-02-28T11:29:42.422Z,25.31
2024-02-28T11:30:42.259Z,26.03
2024-02-28T11:31:42.408Z,26.35
2024-02-28T11:32:42.404Z,27.93
2024-02-28T11:33:43.534Z,28.26
2024-02-28T11:34:42.510Z,26.60
2024-02-28T11:35:42.570Z,26.24
2024-02-28T11:36:42.874Z,25.93
2024-02-28T11:37:42.636Z,25.66
2024-02-28T11:38:42.656Z,25.60
2024-02-28T11:39:42.728Z,26.85
2024-02-28T11:40:42.717Z,25.56
2024-02-28T11:41:43.005Z,25.54
2024-02-28T11:42:42.922Z,26.73
2024-02-28T11:43:50.421Z,26.67
2024-02-28T11:44:43.800Z,41.66
2024-02-28T11:45:42.957Z,56.14
2024-02-28T11:46:42.835Z,26.21
2024-02-28T11:47:42.906Z,24.54
2024-02-28T11:48:42.875Z,25.16
2024-02-28T11:49:42.961Z,24.50
2024-02-28T11:50:43.037Z,24.64
2024-02-28T11:51:42.871Z,25.66
2024-02-28T11:52:42.842Z,25.56
2024-02-28T11:53:42.852Z,24.52
2024-02-28T11:54:42.871Z,23.79
2024-02-28T11:55:42.858Z,25.34
2024-02-28T11:56:43.193Z,24.51
2024-02-28T11:57:42.904Z,22.94
2024-02-28T11:58:42.844Z,24.09
2024-02-28T11:59:42.906Z,23.74
2024-02-28T12:00:43.118Z,24.64
2024-02-28T12:01:42.936Z,23.67
2024-02-28T12:02:42.998Z,22.85
2024-02-28T12:03:42.879Z,22.10
2024-02-28T12:04:42.842Z,20.93
2024-02-28T12:05:42.869Z,20.98
2024-02-28T12:06:42.903Z,21.59
2024-02-28T12:07:42.863Z,20.40
2024-02-28T12:08:42.920Z,22.91
2024-02-28T12:09:43.351Z,21.87
2024-02-28T12:10:42.958Z,21.26
2024-02-28T12:11:42.964Z,21.69
2024-02-28T12:12:43.057Z,20.69
2024-02-28T12:13:43.750Z,20.03
2024-02-28T12:14:43.114Z,20.37
2024-02-28T12:15:43.200Z,20.26
2024-02-28T12:16:43.294Z,19.58
2024-02-28T12:17:43.466Z,19.95
2024-02-28T12:18:43.398Z,19.68
2024-02-28T12:19:43.346Z,20.44
2024-02-28T12:20:43.365Z,20.38
2024-02-28T12:21:43.531Z,19.29
2024-02-28T12:22:43.922Z,20.95
2024-02-28T12:23:43.469Z,22.12
2024-02-28T12:24:43.639Z,21.89
2024-02-28T12:25:43.540Z,21.18
2024-02-28T12:26:43.560Z,19.87
2024-02-28T12:27:43.644Z,21.44
2024-02-28T12:28:43.611Z,19.84
2024-02-28T12:29:43.661Z,18.39
2024-02-28T12:30:43.882Z,19.23
2024-02-28T12:31:43.773Z,20.08
2024-02-28T12:32:43.842Z,21.20
2024-02-28T12:33:43.931Z,20.21
2024-02-28T12:34:43.954Z,20.20
2024-02-28T12:35:44.041Z,17.52
2024-02-28T12:36:45.524Z,19.38
2024-02-28T12:37:44.125Z,20.06
2024-02-28T12:38:44.117Z,19.09
2024-02-28T12:39:44.154Z,19.05
2024-02-28T12:40:44.142Z,19.68
2024-02-28T12:41:44.174Z,18.06
2024-02-28T12:42:44.225Z,18.05
2024-02-28T12:43:44.212Z,17.56
2024-02-28T12:44:44.261Z,17.47
2024-02-28T12:45:44.248Z,17.91
2024-02-28T12:46:44.282Z,18.00
2024-02-28T12:47:44.353Z,17.05
2024-02-28T12:48:44.376Z,16.62
2024-02-28T12:49:44.428Z,14.87
2024-02-28T12:50:44.485Z,15.17
2024-02-28T12:51:44.679Z,15.88
2024-02-28T12:52:44.582Z,15.93